This is the latest recevied weather packets stored in our database for station/object CYFC. If no packets are shown the sender has not sent any weather packets the latest 1 day(s).
| Time | Temp. | Humidity | Pressure | Rain* | Wind** | Luminosity | Snow |
|---|---|---|---|---|---|---|---|
| 1778034198 | 12.78° C | 71% | 1007.5 hPa | - | - | - | - |
| 1778033598 | 12.78° C | 71% | 1007.5 hPa | - | - | - | - |
| 1778032999 | 13.89° C | 67% | 1007.1 hPa | - | - | - | - |
| 1778031798 | 13.89° C | 67% | 1007.1 hPa | - | - | - | - |
| 1778031198 | 13.89° C | 67% | 1007.1 hPa | - | - | - | - |
| 1778029999 | 13.89° C | 67% | 1007.1 hPa | - | - | - | - |
| 1778028799 | 15° C | 62% | 1005.1 hPa | - | - | - | - |
| 1778028197 | 15° C | 62% | 1005.1 hPa | - | - | - | - |
| 1778026996 | 15° C | 62% | 1005.1 hPa | - | - | - | - |
| 1778026402 | 15° C | 62% | 1005.1 hPa | - | - | - | - |
| 1778025800 | 15.56° C | 59% | 1004.1 hPa | - | - | - | - |
| 1778024596 | 15.56° C | 59% | 1004.1 hPa | - | - | - | - |
| 1778024000 | 15.56° C | 59% | 1004.1 hPa | - | - | - | - |
| 1778021602 | 16.67° C | 59% | 1003.7 hPa | - | - | - | - |
| 1778019198 | 16.67° C | 59% | 1003.7 hPa | - | - | - | - |
| 1778018719 | 18.89° C | 52% | 1003.7 hPa | - | - | - | - |
| 1778015599 | 18.89° C | 52% | 1003.7 hPa | - | - | - | - |
| 1778014397 | 21.67° C | 43% | 1003 hPa | - | - | - | - |
| 1778013199 | 21.67° C | 43% | 1003 hPa | - | - | - | - |
| 1778011998 | 21.67° C | 43% | 1003 hPa | - | - | - | - |
| 1778009597 | 23.89° C | 38% | 1003.4 hPa | - | - | - | - |
* Rain since midnight (hover to see other rain measurements)
** Current wind speed in m/s (hover to see current wind gust speed)